Portada
METAR-TAF:

METAR-TAF

Aeroports :

Màlaga, Espanya

latitud: 36-40N, longitud: 004-29W, altitud: 16 m

Observació

L'informe es va fer fa 30 minuts, a les 19:30 UTC
Vent calma
Temperatura 24°C
Humitat 89%
Pressió 1018 hPa
Visibilitat 10 km o més
sense núvols per sota de 1500 mi sense presència de cumulonimbus.

METAR: LEMG 211930Z 00000KT CAVOK 24/22 Q1018 NOSIG

Hora: 22:00 (20:00 UTC)

Pronòstic

L'informe es va fer fa 3 hores i 0 minuts, a les 17:00 UTC
Pronòstic vàlid del 21 a les 18 UTC al 22 a les 18 UTC
Vent 7 kt del Sud-Est
Visibilitat 10 km o més
sense núvols per sota de 1500 mi sense presència de cumulonimbus.
Evolucionant progressivament
l' 21 a les 19 UTC al 21 a les 21 UTC
Vent 5 kt del Oest/Nord-Oest
Evolucionant progressivament
l' 22 a les 08 UTC al 22 a les 10 UTC
Vent 9 kt del Sud-Est

TAF: LEMG 211700Z 2118/2218 14007KT CAVOK TX29/2212Z TN21/2206Z BECMG 2119/2121 29005KT BECMG 2208/2210 13009KT

Observacions i pronòstics meteorològics de més de 4000 aeroports (METAR i TAF).

Les estacions disponibles són els punts grocs i vermells al mapa.

Posi el ratolí al punt desitjat per veure el nom de l'estació.

Feu clic per veure les observacions i els pronòstics meteorològics.

Per canviar el mapa: feu clic els botons verds amb una creu de color negre per apropar; al botó verd amb un guió per allunyar la imatge; o en les fletxes verdes per a mapes adjacents.


METAR-TAF: